sensor_id;sensor_type;location;lat;lon;timestamp;pressure;altitude;pressure_sealevel;temperature;humidity
45369;BME280;51342;55.250;37.668;2023-07-31T00:00:48;98860.34;;;12.03;75.02
45369;BME280;51342;55.250;37.668;2023-07-31T00:03:20;98856.75;;;12.00;75.51
45369;BME280;51342;55.250;37.668;2023-07-31T00:05:51;98854.09;;;11.98;75.26
45369;BME280;51342;55.250;37.668;2023-07-31T00:08:22;98860.22;;;12.00;75.28
45369;BME280;51342;55.250;37.668;2023-07-31T00:10:54;98862.72;;;11.97;75.63
45369;BME280;51342;55.250;37.668;2023-07-31T00:13:25;98863.41;;;11.93;75.77
45369;BME280;51342;55.250;37.668;2023-07-31T00:15:56;98865.88;;;11.90;75.88
45369;BME280;51342;55.250;37.668;2023-07-31T00:18:28;98871.88;;;11.89;75.40
45369;BME280;51342;55.250;37.668;2023-07-31T00:20:59;98858.81;;;11.86;75.78
45369;BME280;51342;55.250;37.668;2023-07-31T00:23:30;98861.28;;;11.83;75.86
45369;BME280;51342;55.250;37.668;2023-07-31T00:26:02;98867.28;;;11.82;75.46
45369;BME280;51342;55.250;37.668;2023-07-31T00:28:33;98865.56;;;11.82;75.47
45369;BME280;51342;55.250;37.668;2023-07-31T00:31:05;98859.50;;;11.82;75.63
45369;BME280;51342;55.250;37.668;2023-07-31T00:33:37;98855.03;;;11.79;75.61
45369;BME280;51342;55.250;37.668;2023-07-31T00:36:09;98862.75;;;11.78;75.68
45369;BME280;51342;55.250;37.668;2023-07-31T00:38:40;98866.13;;;11.75;76.16
45369;BME280;51342;55.250;37.668;2023-07-31T00:41:11;98861.69;;;11.73;75.67
45369;BME280;51342;55.250;37.668;2023-07-31T00:43:43;98860.75;;;11.71;75.65
45369;BME280;51342;55.250;37.668;2023-07-31T00:46:14;98869.38;;;11.70;75.62
45369;BME280;51342;55.250;37.668;2023-07-31T00:48:45;98865.94;;;11.71;75.14
45369;BME280;51342;55.250;37.668;2023-07-31T00:51:17;98857.25;;;11.68;75.43
45369;BME280;51342;55.250;37.668;2023-07-31T00:53:48;98861.47;;;11.66;75.68
45369;BME280;51342;55.250;37.668;2023-07-31T00:56:20;98859.66;;;11.64;75.44
45369;BME280;51342;55.250;37.668;2023-07-31T00:58:51;98856.97;;;11.62;75.45
45369;BME280;51342;55.250;37.668;2023-07-31T01:01:22;98858.63;;;11.60;75.60
45369;BME280;51342;55.250;37.668;2023-07-31T01:03:54;98862.94;;;11.60;75.59
45369;BME280;51342;55.250;37.668;2023-07-31T01:12:27;98856.69;;;11.55;75.50
45369;BME280;51342;55.250;37.668;2023-07-31T01:15:06;98860.84;;;11.51;75.40
45369;BME280;51342;55.250;37.668;2023-07-31T01:17:39;98863.44;;;11.51;75.31
45369;BME280;51342;55.250;37.668;2023-07-31T01:26:05;98859.53;;;11.40;75.78
45369;BME280;51342;55.250;37.668;2023-07-31T01:28:50;98853.47;;;11.39;75.77
45369;BME280;51342;55.250;37.668;2023-07-31T01:31:25;98854.44;;;11.41;75.81
45369;BME280;51342;55.250;37.668;2023-07-31T01:34:01;98848.38;;;11.41;75.48
45369;BME280;51342;55.250;37.668;2023-07-31T01:36:32;98852.72;;;11.42;75.91
45369;BME280;51342;55.250;37.668;2023-07-31T01:39:04;98851.91;;;11.43;75.84
45369;BME280;51342;55.250;37.668;2023-07-31T01:41:36;98848.22;;;11.38;75.89
45369;BME280;51342;55.250;37.668;2023-07-31T01:44:07;98852.66;;;11.40;75.88
45369;BME280;51342;55.250;37.668;2023-07-31T01:46:39;98861.19;;;11.38;75.85
45369;BME280;51342;55.250;37.668;2023-07-31T01:52:05;98847.94;;;11.30;75.99
45369;BME280;51342;55.250;37.668;2023-07-31T01:54:37;98826.84;;;11.21;76.09
45369;BME280;51342;55.250;37.668;2023-07-31T01:57:08;98846.97;;;11.28;76.49
45369;BME280;51342;55.250;37.668;2023-07-31T01:59:40;98852.28;;;11.31;76.29
45369;BME280;51342;55.250;37.668;2023-07-31T02:02:11;98855.91;;;11.35;76.59
45369;BME280;51342;55.250;37.668;2023-07-31T02:04:42;98857.66;;;11.36;76.19
45369;BME280;51342;55.250;37.668;2023-07-31T02:07:14;98857.66;;;11.36;76.14
45369;BME280;51342;55.250;37.668;2023-07-31T02:09:45;98854.25;;;11.37;76.45
45369;BME280;51342;55.250;37.668;2023-07-31T02:12:18;98851.75;;;11.40;76.54
45369;BME280;51342;55.250;37.668;2023-07-31T02:14:50;98852.97;;;11.48;76.68
45369;BME280;51342;55.250;37.668;2023-07-31T02:17:22;98849.78;;;11.55;76.76
45369;BME280;51342;55.250;37.668;2023-07-31T02:19:54;98850.34;;;11.69;76.94
45369;BME280;51342;55.250;37.668;2023-07-31T02:22:25;98860.38;;;11.82;76.77
45369;BME280;51342;55.250;37.668;2023-07-31T02:24:56;98851.38;;;11.95;76.69
45369;BME280;51342;55.250;37.668;2023-07-31T02:27:28;98857.38;;;12.16;76.36
45369;BME280;51342;55.250;37.668;2023-07-31T02:30:00;98846.84;;;12.36;76.48
45369;BME280;51342;55.250;37.668;2023-07-31T02:32:31;98857.34;;;12.63;76.06
45369;BME280;51342;55.250;37.668;2023-07-31T02:35:03;98852.94;;;12.86;75.38
45369;BME280;51342;55.250;37.668;2023-07-31T02:37:34;98847.59;;;13.07;74.71
45369;BME280;51342;55.250;37.668;2023-07-31T02:40:07;98852.31;;;13.18;74.28
45369;BME280;51342;55.250;37.668;2023-07-31T02:42:38;98854.44;;;13.29;74.32
45369;BME280;51342;55.250;37.668;2023-07-31T02:45:10;98855.03;;;13.47;74.50
45369;BME280;51342;55.250;37.668;2023-07-31T02:47:41;98856.69;;;13.72;74.26
45369;BME280;51342;55.250;37.668;2023-07-31T02:50:12;98854.16;;;14.02;74.05
45369;BME280;51342;55.250;37.668;2023-07-31T02:52:44;98851.44;;;14.29;73.61
45369;BME280;51342;55.250;37.668;2023-07-31T02:55:15;98844.44;;;14.55;73.16
45369;BME280;51342;55.250;37.668;2023-07-31T02:57:47;98841.63;;;14.80;72.53
45369;BME280;51342;55.250;37.668;2023-07-31T03:00:19;98846.63;;;15.04;72.00
45369;BME280;51342;55.250;37.668;2023-07-31T03:02:50;98843.50;;;15.19;71.53
45369;BME280;51342;55.250;37.668;2023-07-31T03:05:22;98853.63;;;15.42;71.28
45369;BME280;51342;55.250;37.668;2023-07-31T03:07:53;98845.56;;;15.66;70.74
45369;BME280;51342;55.250;37.668;2023-07-31T03:10:25;98845.19;;;15.88;70.07
45369;BME280;51342;55.250;37.668;2023-07-31T03:12:56;98839.69;;;16.15;69.11
45369;BME280;51342;55.250;37.668;2023-07-31T03:15:27;98839.16;;;16.31;68.48
45369;BME280;51342;55.250;37.668;2023-07-31T03:17:59;98827.25;;;16.44;67.97
45369;BME280;51342;55.250;37.668;2023-07-31T03:20:30;98844.09;;;16.60;67.66
45369;BME280;51342;55.250;37.668;2023-07-31T03:23:01;98845.28;;;16.74;67.43
45369;BME280;51342;55.250;37.668;2023-07-31T03:25:33;98839.56;;;16.95;67.14
45369;BME280;51342;55.250;37.668;2023-07-31T03:28:04;98836.38;;;17.11;66.81
45369;BME280;51342;55.250;37.668;2023-07-31T03:30:36;98840.06;;;17.24;67.00
45369;BME280;51342;55.250;37.668;2023-07-31T03:33:09;98841.19;;;17.38;66.91
45369;BME280;51342;55.250;37.668;2023-07-31T03:35:40;98837.97;;;17.56;66.66
45369;BME280;51342;55.250;37.668;2023-07-31T03:38:12;98839.16;;;17.75;66.54
45369;BME280;51342;55.250;37.668;2023-07-31T03:40:43;98825.28;;;17.79;66.94
45369;BME280;51342;55.250;37.668;2023-07-31T03:43:15;98838.63;;;17.97;67.40
45369;BME280;51342;55.250;37.668;2023-07-31T03:45:47;98836.34;;;18.22;66.69
45369;BME280;51342;55.250;37.668;2023-07-31T03:48:19;98840.00;;;18.35;67.00
45369;BME280;51342;55.250;37.668;2023-07-31T03:54:44;98835.09;;;18.61;65.52
45369;BME280;51342;55.250;37.668;2023-07-31T03:57:18;98831.75;;;18.74;65.26
45369;BME280;51342;55.250;37.668;2023-07-31T03:59:49;98838.06;;;18.93;65.18
45369;BME280;51342;55.250;37.668;2023-07-31T04:02:21;98834.78;;;19.14;64.57
45369;BME280;51342;55.250;37.668;2023-07-31T04:04:52;98842.84;;;19.35;64.63
45369;BME280;51342;55.250;37.668;2023-07-31T04:07:23;98842.06;;;19.47;63.94
45369;BME280;51342;55.250;37.668;2023-07-31T04:09:56;98846.47;;;19.54;63.87
45369;BME280;51342;55.250;37.668;2023-07-31T04:12:27;98848.22;;;19.56;63.78
45369;BME280;51342;55.250;37.668;2023-07-31T04:14:58;98851.84;;;19.65;63.88
45369;BME280;51342;55.250;37.668;2023-07-31T04:17:30;98846.69;;;19.77;63.98
45369;BME280;51342;55.250;37.668;2023-07-31T04:20:01;98849.38;;;19.91;63.46
45369;BME280;51342;55.250;37.668;2023-07-31T04:22:33;98855.56;;;19.97;63.47
45369;BME280;51342;55.250;37.668;2023-07-31T04:25:05;98852.09;;;20.04;64.07
45369;BME280;51342;55.250;37.668;2023-07-31T04:27:36;98847.75;;;20.11;63.60
45369;BME280;51342;55.250;37.668;2023-07-31T04:30:08;98848.69;;;20.21;63.57
45369;BME280;51342;55.250;37.668;2023-07-31T04:32:39;98840.00;;;20.31;63.72
45369;BME280;51342;55.250;37.668;2023-07-31T04:35:11;98846.19;;;20.44;63.36
45369;BME280;51342;55.250;37.668;2023-07-31T04:37:42;98852.41;;;20.59;63.24
45369;BME280;51342;55.250;37.668;2023-07-31T04:40:13;98849.81;;;20.72;62.72
45369;BME280;51342;55.250;37.668;2023-07-31T04:42:45;98846.34;;;20.85;61.71
45369;BME280;51342;55.250;37.668;2023-07-31T04:45:17;98849.00;;;20.94;61.55
45369;BME280;51342;55.250;37.668;2023-07-31T04:47:48;98850.75;;;21.09;61.79
45369;BME280;51342;55.250;37.668;2023-07-31T04:50:20;98852.53;;;21.27;60.84
45369;BME280;51342;55.250;37.668;2023-07-31T04:52:51;98846.44;;;21.34;60.42
45369;BME280;51342;55.250;37.668;2023-07-31T04:55:22;98850.81;;;21.44;60.41
45369;BME280;51342;55.250;37.668;2023-07-31T04:57:54;98844.69;;;21.56;59.86
45369;BME280;51342;55.250;37.668;2023-07-31T05:00:25;98851.72;;;21.67;60.00
45369;BME280;51342;55.250;37.668;2023-07-31T05:02:56;98849.06;;;21.80;59.22
45369;BME280;51342;55.250;37.668;2023-07-31T05:05:28;98852.53;;;21.88;59.74
45369;BME280;51342;55.250;37.668;2023-07-31T05:07:59;98854.31;;;22.01;59.25
45369;BME280;51342;55.250;37.668;2023-07-31T05:10:31;98849.03;;;22.10;59.43
45369;BME280;51342;55.250;37.668;2023-07-31T05:13:02;98848.09;;;22.23;59.50
45369;BME280;51342;55.250;37.668;2023-07-31T05:15:34;98849.81;;;22.38;59.16
45369;BME280;51342;55.250;37.668;2023-07-31T05:18:05;98847.16;;;22.52;58.51
45369;BME280;51342;55.250;37.668;2023-07-31T05:20:36;98848.81;;;22.62;58.39
45369;BME280;51342;55.250;37.668;2023-07-31T05:23:08;98852.28;;;22.73;57.87
45369;BME280;51342;55.250;37.668;2023-07-31T05:25:40;98855.78;;;22.88;58.39
45369;BME280;51342;55.250;37.668;2023-07-31T05:28:12;98853.97;;;22.96;55.94
45369;BME280;51342;55.250;37.668;2023-07-31T05:30:44;98852.16;;;23.06;56.42
45369;BME280;51342;55.250;37.668;2023-07-31T05:33:15;98848.50;;;23.23;55.56
45369;BME280;51342;55.250;37.668;2023-07-31T05:35:46;98851.91;;;23.39;55.89
45369;BME280;51342;55.250;37.668;2023-07-31T05:38:18;98850.09;;;23.49;56.02
45369;BME280;51342;55.250;37.668;2023-07-31T05:40:49;98851.75;;;23.61;55.29
45369;BME280;51342;55.250;37.668;2023-07-31T05:43:20;98850.78;;;23.69;54.70
45369;BME280;51342;55.250;37.668;2023-07-31T05:45:52;98849.81;;;23.81;55.13
45369;BME280;51342;55.250;37.668;2023-07-31T05:48:23;98842.69;;;23.91;54.37
45369;BME280;51342;55.250;37.668;2023-07-31T05:50:55;98842.63;;;23.97;54.21
45369;BME280;51342;55.250;37.668;2023-07-31T05:53:26;98846.97;;;24.01;53.13
45369;BME280;51342;55.250;37.668;2023-07-31T05:55:59;98839.88;;;24.04;50.86
45369;BME280;51342;55.250;37.668;2023-07-31T05:58:30;98846.00;;;24.08;52.80
45369;BME280;51342;55.250;37.668;2023-07-31T06:01:01;98838.91;;;24.13;53.69
45369;BME280;51342;55.250;37.668;2023-07-31T06:03:33;98844.09;;;24.21;51.69
45369;BME280;51342;55.250;37.668;2023-07-31T06:06:04;98845.75;;;24.31;53.16
45369;BME280;51342;55.250;37.668;2023-07-31T06:08:36;98845.69;;;24.39;51.26
45369;BME280;51342;55.250;37.668;2023-07-31T06:11:08;98850.03;;;24.46;51.96
45369;BME280;51342;55.250;37.668;2023-07-31T06:13:40;98843.75;;;24.53;52.42
45369;BME280;51342;55.250;37.668;2023-07-31T06:16:11;98841.81;;;24.66;52.47
45369;BME280;51342;55.250;37.668;2023-07-31T06:18:43;98836.41;;;24.76;50.53
45369;BME280;51342;55.250;37.668;2023-07-31T06:21:14;98837.22;;;24.81;50.42
45369;BME280;51342;55.250;37.668;2023-07-31T06:23:46;98838.94;;;24.84;49.32
45369;BME280;51342;55.250;37.668;2023-07-31T06:26:17;98842.53;;;24.80;48.58
45369;BME280;51342;55.250;37.668;2023-07-31T06:28:48;98834.59;;;24.78;49.39
45369;BME280;51342;55.250;37.668;2023-07-31T06:31:20;98844.13;;;24.92;50.75
45369;BME280;51342;55.250;37.668;2023-07-31T06:33:54;98835.16;;;25.00;50.83
45369;BME280;51342;55.250;37.668;2023-07-31T06:36:25;98839.53;;;25.06;48.47
45369;BME280;51342;55.250;37.668;2023-07-31T06:38:57;98840.41;;;25.05;49.86
45369;BME280;51342;55.250;37.668;2023-07-31T06:41:28;98835.91;;;25.13;49.31
45369;BME280;51342;55.250;37.668;2023-07-31T06:43:59;98837.59;;;25.19;49.45
45369;BME280;51342;55.250;37.668;2023-07-31T06:46:31;98841.91;;;25.26;48.94
45369;BME280;51342;55.250;37.668;2023-07-31T06:49:02;98852.41;;;25.30;48.98
45369;BME280;51342;55.250;37.668;2023-07-31T06:51:34;98839.94;;;25.37;48.88
45369;BME280;51342;55.250;37.668;2023-07-31T06:54:08;98852.13;;;25.49;49.65
45369;BME280;51342;55.250;37.668;2023-07-31T06:56:40;98838.84;;;25.50;49.07
45369;BME280;51342;55.250;37.668;2023-07-31T06:59:11;98852.84;;;25.57;47.70
45369;BME280;51342;55.250;37.668;2023-07-31T07:01:42;98851.06;;;25.59;48.33
45369;BME280;51342;55.250;37.668;2023-07-31T07:04:14;98842.28;;;25.55;48.17
45369;BME280;51342;55.250;37.668;2023-07-31T07:06:46;98853.63;;;25.63;47.16
45369;BME280;51342;55.250;37.668;2023-07-31T07:09:17;98858.91;;;25.63;47.83
45369;BME280;51342;55.250;37.668;2023-07-31T07:11:49;98855.34;;;25.66;46.12
45369;BME280;51342;55.250;37.668;2023-07-31T07:14:22;98854.44;;;25.67;46.38
45369;BME280;51342;55.250;37.668;2023-07-31T07:16:53;98856.13;;;25.74;45.26
45369;BME280;51342;55.250;37.668;2023-07-31T07:19:24;98847.28;;;25.74;47.01
45369;BME280;51342;55.250;37.668;2023-07-31T07:21:56;98842.88;;;25.76;47.11
45369;BME280;51342;55.250;37.668;2023-07-31T07:24:28;98853.31;;;25.83;45.98
45369;BME280;51342;55.250;37.668;2023-07-31T07:26:59;98850.63;;;25.85;47.06
45369;BME280;51342;55.250;37.668;2023-07-31T07:29:31;98851.50;;;25.85;44.94
45369;BME280;51342;55.250;37.668;2023-07-31T07:32:03;98862.97;;;25.87;44.74
45369;BME280;51342;55.250;37.668;2023-07-31T07:34:34;98862.03;;;25.90;44.97
45369;BME280;51342;55.250;37.668;2023-07-31T07:37:05;98863.00;;;25.84;45.59
45369;BME280;51342;55.250;37.668;2023-07-31T07:39:37;98859.44;;;25.85;45.74
45369;BME280;51342;55.250;37.668;2023-07-31T07:42:08;98858.59;;;25.85;47.09
45369;BME280;51342;55.250;37.668;2023-07-31T07:44:40;98869.13;;;25.88;46.25
45369;BME280;51342;55.250;37.668;2023-07-31T07:47:12;98855.03;;;25.86;45.43
45369;BME280;51342;55.250;37.668;2023-07-31T07:49:44;98852.41;;;25.84;45.88
45369;BME280;51342;55.250;37.668;2023-07-31T07:56:16;98872.88;;;25.76;43.53
45369;BME280;51342;55.250;37.668;2023-07-31T07:58:50;98873.03;;;25.66;42.64
45369;BME280;51342;55.250;37.668;2023-07-31T08:01:21;98867.06;;;25.53;43.90
45369;BME280;51342;55.250;37.668;2023-07-31T08:03:53;98865.19;;;25.58;45.61
45369;BME280;51342;55.250;37.668;2023-07-31T08:06:24;98868.66;;;25.61;42.96
45369;BME280;51342;55.250;37.668;2023-07-31T08:08:56;98871.19;;;25.69;40.30
45369;BME280;51342;55.250;37.668;2023-07-31T08:11:27;98873.00;;;25.67;42.15
45369;BME280;51342;55.250;37.668;2023-07-31T08:13:59;98866.78;;;25.68;42.93
45369;BME280;51342;55.250;37.668;2023-07-31T08:16:30;98879.06;;;25.77;40.20
45369;BME280;51342;55.250;37.668;2023-07-31T08:19:02;98858.91;;;25.63;40.16
45369;BME280;51342;55.250;37.668;2023-07-31T08:21:33;98868.56;;;25.68;42.65
45369;BME280;51342;55.250;37.668;2023-07-31T08:24:04;98866.59;;;25.80;42.35
45369;BME280;51342;55.250;37.668;2023-07-31T08:26:36;98870.81;;;25.94;43.35
45369;BME280;51342;55.250;37.668;2023-07-31T08:29:07;98863.53;;;26.05;42.97
45369;BME280;51342;55.250;37.668;2023-07-31T08:31:39;98868.66;;;26.14;44.26
45369;BME280;51342;55.250;37.668;2023-07-31T08:34:10;98864.91;;;26.24;44.98
45369;BME280;51342;55.250;37.668;2023-07-31T08:36:41;98872.75;;;26.30;42.77
45369;BME280;51342;55.250;37.668;2023-07-31T08:39:13;98866.75;;;26.22;40.78
45369;BME280;51342;55.250;37.668;2023-07-31T08:41:44;98867.53;;;26.26;42.76
45369;BME280;51342;55.250;37.668;2023-07-31T08:44:17;98871.88;;;26.30;41.84
45369;BME280;51342;55.250;37.668;2023-07-31T08:46:49;98876.34;;;26.26;39.71
45369;BME280;51342;55.250;37.668;2023-07-31T08:49:22;98871.00;;;26.29;41.56
45369;BME280;51342;55.250;37.668;2023-07-31T08:51:54;98866.88;;;26.14;41.78
45369;BME280;51342;55.250;37.668;2023-07-31T08:54:29;98882.13;;;26.02;42.30
45369;BME280;51342;55.250;37.668;2023-07-31T08:57:02;98874.94;;;26.10;41.29
45369;BME280;51342;55.250;37.668;2023-07-31T08:59:35;98870.34;;;26.18;40.55
45369;BME280;51342;55.250;37.668;2023-07-31T09:02:08;98873.72;;;26.26;42.53
45369;BME280;51342;55.250;37.668;2023-07-31T09:04:39;98877.06;;;26.36;42.26
45369;BME280;51342;55.250;37.668;2023-07-31T09:07:12;98871.59;;;26.47;42.43
45369;BME280;51342;55.250;37.668;2023-07-31T09:09:45;98873.25;;;26.52;42.45
45369;BME280;51342;55.250;37.668;2023-07-31T09:12:17;98874.94;;;26.55;42.38
45369;BME280;51342;55.250;37.668;2023-07-31T09:14:48;98869.63;;;26.56;40.59
45369;BME280;51342;55.250;37.668;2023-07-31T09:17:34;98868.75;;;26.56;40.99
45369;BME280;51342;55.250;37.668;2023-07-31T09:20:13;98870.41;;;26.60;40.72
45369;BME280;51342;55.250;37.668;2023-07-31T09:22:46;98872.06;;;26.67;40.18
45369;BME280;51342;55.250;37.668;2023-07-31T09:25:24;98867.53;;;26.71;41.37
45369;BME280;51342;55.250;37.668;2023-07-31T09:28:02;98864.75;;;26.77;41.38
45369;BME280;51342;55.250;37.668;2023-07-31T09:30:49;98872.66;;;26.80;41.69
45369;BME280;51342;55.250;37.668;2023-07-31T09:33:21;98878.25;;;26.67;41.49
45369;BME280;51342;55.250;37.668;2023-07-31T09:35:53;98885.81;;;26.42;40.11
45369;BME280;51342;55.250;37.668;2023-07-31T09:38:24;98881.69;;;26.25;38.88
45369;BME280;51342;55.250;37.668;2023-07-31T09:40:58;98874.94;;;26.10;36.40
45369;BME280;51342;55.250;37.668;2023-07-31T09:43:30;98872.41;;;26.02;37.53
45369;BME280;51342;55.250;37.668;2023-07-31T09:46:01;98876.63;;;26.12;39.89
45369;BME280;51342;55.250;37.668;2023-07-31T09:48:38;98868.41;;;26.28;39.38
45369;BME280;51342;55.250;37.668;2023-07-31T09:51:10;98871.72;;;26.39;39.07
45369;BME280;51342;55.250;37.668;2023-07-31T09:56:38;98865.06;;;26.63;41.84
45369;BME280;51342;55.250;37.668;2023-07-31T09:59:13;98862.22;;;26.72;40.62
45369;BME280;51342;55.250;37.668;2023-07-31T10:01:45;98860.50;;;26.69;41.34
45369;BME280;51342;55.250;37.668;2023-07-31T10:04:18;98864.94;;;26.69;41.95
45369;BME280;51342;55.250;37.668;2023-07-31T10:06:54;98866.94;;;26.58;41.37
45369;BME280;51342;55.250;37.668;2023-07-31T10:09:30;98878.81;;;26.37;42.19
45369;BME280;51342;55.250;37.668;2023-07-31T10:12:05;98875.41;;;26.30;42.14
45369;BME280;51342;55.250;37.668;2023-07-31T10:14:41;98877.28;;;26.25;42.91
45369;BME280;51342;55.250;37.668;2023-07-31T10:17:13;98876.59;;;26.14;42.22
45369;BME280;51342;55.250;37.668;2023-07-31T10:19:46;98875.06;;;26.02;43.62
45369;BME280;51342;55.250;37.668;2023-07-31T10:22:19;98876.94;;;25.96;43.78
45369;BME280;51342;55.250;37.668;2023-07-31T10:24:52;98875.97;;;26.01;44.24
45369;BME280;51342;55.250;37.668;2023-07-31T10:27:26;98867.81;;;26.12;43.22
45369;BME280;51342;55.250;37.668;2023-07-31T10:29:58;98857.31;;;26.06;43.10
45369;BME280;51342;55.250;37.668;2023-07-31T10:32:30;98868.53;;;26.20;42.62
45369;BME280;51342;55.250;37.668;2023-07-31T10:35:03;98869.19;;;26.33;41.03
45369;BME280;51342;55.250;37.668;2023-07-31T10:37:40;98871.66;;;26.42;42.47
45369;BME280;51342;55.250;37.668;2023-07-31T10:40:17;98864.72;;;26.35;42.24
45369;BME280;51342;55.250;37.668;2023-07-31T10:42:51;98881.56;;;26.32;41.24
45369;BME280;51342;55.250;37.668;2023-07-31T10:45:35;98877.22;;;26.28;42.74
45369;BME280;51342;55.250;37.668;2023-07-31T10:48:14;98868.31;;;26.31;42.70
45369;BME280;51342;55.250;37.668;2023-07-31T10:50:55;98880.50;;;26.42;42.10
45369;BME280;51342;55.250;37.668;2023-07-31T10:53:31;98876.84;;;26.50;43.10
45369;BME280;51342;55.250;37.668;2023-07-31T10:56:08;98874.06;;;26.56;42.45
45369;BME280;51342;55.250;37.668;2023-07-31T10:58:44;98873.16;;;26.57;42.45
45369;BME280;51342;55.250;37.668;2023-07-31T11:01:15;98873.19;;;26.54;42.98
45369;BME280;51342;55.250;37.668;2023-07-31T11:03:49;98870.69;;;26.48;42.82
45369;BME280;51342;55.250;37.668;2023-07-31T11:06:29;98874.44;;;26.34;43.19
45369;BME280;51342;55.250;37.668;2023-07-31T11:09:00;98874.63;;;26.25;43.71
45369;BME280;51342;55.250;37.668;2023-07-31T11:11:33;98869.44;;;26.19;43.95
45369;BME280;51342;55.250;37.668;2023-07-31T11:14:04;98868.59;;;26.17;42.96
45369;BME280;51342;55.250;37.668;2023-07-31T11:16:36;98872.94;;;26.21;45.32
45369;BME280;51342;55.250;37.668;2023-07-31T11:19:08;98859.66;;;26.23;45.38
45369;BME280;51342;55.250;37.668;2023-07-31T11:21:40;98869.31;;;26.25;45.30
45369;BME280;51342;55.250;37.668;2023-07-31T11:24:12;98874.81;;;26.16;44.70
45369;BME280;51342;55.250;37.668;2023-07-31T11:26:53;98877.75;;;26.01;44.60
45369;BME280;51342;55.250;37.668;2023-07-31T11:29:27;98870.81;;;25.94;44.18
45369;BME280;51342;55.250;37.668;2023-07-31T11:31:59;98880.56;;;25.90;44.83
45369;BME280;51342;55.250;37.668;2023-07-31T11:34:31;98877.16;;;25.83;45.48
45369;BME280;51342;55.250;37.668;2023-07-31T11:37:03;98881.63;;;25.81;45.55
45369;BME280;51342;55.250;37.668;2023-07-31T11:39:34;98877.25;;;25.79;47.01
45369;BME280;51342;55.250;37.668;2023-07-31T11:42:06;98870.25;;;25.73;46.50
45369;BME280;51342;55.250;37.668;2023-07-31T11:44:40;98867.81;;;25.61;48.02
45369;BME280;51342;55.250;37.668;2023-07-31T11:47:15;98875.03;;;25.50;49.13
45369;BME280;51342;55.250;37.668;2023-07-31T11:49:48;98869.84;;;25.44;49.74
45369;BME280;51342;55.250;37.668;2023-07-31T11:52:20;98869.03;;;25.38;49.61
45369;BME280;51342;55.250;37.668;2023-07-31T11:58:45;98873.84;;;25.12;50.83
45369;BME280;51342;55.250;37.668;2023-07-31T12:01:19;98875.63;;;25.11;49.69
45369;BME280;51342;55.250;37.668;2023-07-31T12:03:52;98879.97;;;25.19;49.72
45369;BME280;51342;55.250;37.668;2023-07-31T12:06:32;98879.84;;;25.25;48.77
45369;BME280;51342;55.250;37.668;2023-07-31T12:09:05;98876.22;;;25.32;48.78
45369;BME280;51342;55.250;37.668;2023-07-31T12:11:44;98876.28;;;25.27;47.82
45369;BME280;51342;55.250;37.668;2023-07-31T12:14:23;98877.31;;;25.19;48.01
45369;BME280;51342;55.250;37.668;2023-07-31T12:17:01;98875.59;;;25.15;48.23
45369;BME280;51342;55.250;37.668;2023-07-31T12:19:34;98875.69;;;25.08;49.59
45369;BME280;51342;55.250;37.668;2023-07-31T12:22:13;98878.38;;;25.01;50.76
45369;BME280;51342;55.250;37.668;2023-07-31T12:24:44;98879.31;;;24.98;50.85
45369;BME280;51342;55.250;37.668;2023-07-31T12:27:16;98869.78;;;24.87;51.49
45369;BME280;51342;55.250;37.668;2023-07-31T12:29:49;98874.22;;;24.83;51.33
45369;BME280;51342;55.250;37.668;2023-07-31T12:32:22;98872.50;;;24.80;51.08
45369;BME280;51342;55.250;37.668;2023-07-31T12:34:53;98875.22;;;24.76;53.32
45369;BME280;51342;55.250;37.668;2023-07-31T12:37:25;98878.81;;;24.70;52.77
45369;BME280;51342;55.250;37.668;2023-07-31T12:39:56;98888.56;;;24.65;54.04
45369;BME280;51342;55.250;37.668;2023-07-31T12:42:31;98890.38;;;24.63;53.51
45369;BME280;51342;55.250;37.668;2023-07-31T12:45:03;98882.47;;;24.60;53.63
45369;BME280;51342;55.250;37.668;2023-07-31T12:47:35;98880.69;;;24.62;54.68
45369;BME280;51342;55.250;37.668;2023-07-31T12:50:06;98881.50;;;24.66;53.57
45369;BME280;51342;55.250;37.668;2023-07-31T12:52:38;98887.50;;;24.78;53.02
45369;BME280;51342;55.250;37.668;2023-07-31T12:55:09;98884.72;;;24.91;53.00
45369;BME280;51342;55.250;37.668;2023-07-31T12:57:42;98882.75;;;25.05;52.43
45369;BME280;51342;55.250;37.668;2023-07-31T13:00:13;98883.44;;;25.21;51.27
45369;BME280;51342;55.250;37.668;2023-07-31T13:02:45;98876.22;;;25.32;50.92
45369;BME280;51342;55.250;37.668;2023-07-31T13:05:16;98876.88;;;25.45;49.41
45369;BME280;51342;55.250;37.668;2023-07-31T13:07:48;98874.97;;;25.54;48.93
45369;BME280;51342;55.250;37.668;2023-07-31T13:10:20;98873.97;;;25.61;47.81
45369;BME280;51342;55.250;37.668;2023-07-31T13:12:52;98868.69;;;25.60;47.77
45369;BME280;51342;55.250;37.668;2023-07-31T13:15:24;98875.72;;;25.62;47.97
45369;BME280;51342;55.250;37.668;2023-07-31T13:17:55;98871.31;;;25.61;48.22
45369;BME280;51342;55.250;37.668;2023-07-31T13:20:26;98873.13;;;25.58;47.93
45369;BME280;51342;55.250;37.668;2023-07-31T13:22:58;98873.28;;;25.50;47.42
45369;BME280;51342;55.250;37.668;2023-07-31T13:25:29;98875.94;;;25.49;47.50
45369;BME280;51342;55.250;37.668;2023-07-31T13:28:00;98877.69;;;25.50;47.45
45369;BME280;51342;55.250;37.668;2023-07-31T13:30:33;98881.16;;;25.55;47.40
45369;BME280;51342;55.250;37.668;2023-07-31T13:33:04;98872.16;;;25.63;47.24
45369;BME280;51342;55.250;37.668;2023-07-31T13:35:35;98865.00;;;25.70;46.94
45369;BME280;51342;55.250;37.668;2023-07-31T13:38:07;98865.84;;;25.74;46.25
45369;BME280;51342;55.250;37.668;2023-07-31T13:40:38;98870.25;;;25.73;45.95
45369;BME280;51342;55.250;37.668;2023-07-31T13:43:09;98870.22;;;25.75;47.09
45369;BME280;51342;55.250;37.668;2023-07-31T13:45:41;98867.47;;;25.81;46.77